createdAt,value
2022-11-04T00:00:22.909Z,76526.50
2022-11-04T00:02:52.942Z,76551.16
2022-11-04T00:05:20.227Z,76563.50
2022-11-04T00:08:06.478Z,76567.59
2022-11-04T00:10:52.582Z,76551.16
2022-11-04T00:13:19.901Z,76579.94
2022-11-04T00:16:06.066Z,76575.81
2022-11-04T00:18:35.339Z,76567.59
2022-11-04T00:21:21.186Z,76579.94
2022-11-04T00:24:06.974Z,76551.16
2022-11-04T00:26:52.965Z,76592.28
2022-11-04T00:29:20.389Z,76575.81
2022-11-04T00:32:06.601Z,76579.94
2022-11-04T00:34:34.732Z,76600.50
2022-11-04T00:37:03.247Z,76606.66
2022-11-04T00:39:30.569Z,76608.72
2022-11-04T00:41:58.129Z,76604.59
2022-11-04T00:44:25.528Z,76588.16
2022-11-04T00:46:53.063Z,76594.31
2022-11-04T00:49:20.445Z,76606.66
2022-11-04T00:51:47.870Z,76600.50
2022-11-04T00:54:15.266Z,76582.00
2022-11-04T00:56:43.603Z,76592.28
2022-11-04T00:59:13.512Z,76604.59
2022-11-04T01:01:43.903Z,76623.09
2022-11-04T01:04:11.332Z,76612.84
2022-11-04T01:06:38.611Z,76582.00
2022-11-04T01:09:07.026Z,76584.06
2022-11-04T01:11:34.656Z,76604.59
2022-11-04T01:14:02.039Z,76600.50
2022-11-04T01:16:29.584Z,76575.81
2022-11-04T01:18:57.364Z,76590.22
2022-11-04T01:21:24.766Z,76612.84
2022-11-04T01:23:52.290Z,76600.50
2022-11-04T01:26:20.349Z,76594.31
2022-11-04T01:28:47.724Z,76575.81
2022-11-04T01:31:16.466Z,76625.16
2022-11-04T01:33:43.797Z,76604.59
2022-11-04T01:36:11.229Z,76582.00
2022-11-04T01:38:38.635Z,76575.81
2022-11-04T01:41:06.173Z,76604.59
2022-11-04T01:43:43.861Z,76608.72
2022-11-04T01:46:12.716Z,76600.50
2022-11-04T01:48:40.267Z,76606.66
2022-11-04T01:51:08.027Z,76619.00
2022-11-04T01:53:37.632Z,76629.28
2022-11-04T01:56:12.094Z,76633.38
2022-11-04T01:58:40.566Z,76625.16
2022-11-04T02:01:09.141Z,76600.50
2022-11-04T02:03:38.437Z,76596.38
2022-11-04T02:06:06.894Z,76629.28
2022-11-04T02:08:34.982Z,76649.84
2022-11-04T02:11:05.730Z,76647.78
2022-11-04T02:13:33.997Z,76637.50
2022-11-04T02:16:11.074Z,76649.84
2022-11-04T02:18:47.779Z,76645.72
2022-11-04T02:21:24.528Z,76647.78
2022-11-04T02:24:08.393Z,76670.38
2022-11-04T02:26:54.989Z,76674.50
2022-11-04T02:29:31.613Z,76662.16
2022-11-04T02:35:10.990Z,76672.44
2022-11-04T02:37:58.023Z,76682.72
2022-11-04T02:40:34.452Z,76686.84
2022-11-04T02:43:03.491Z,76686.84
2022-11-04T02:45:36.406Z,76688.91
2022-11-04T02:48:22.325Z,76686.84
2022-11-04T02:50:54.114Z,76678.63
2022-11-04T02:53:30.134Z,76676.56
2022-11-04T02:55:57.658Z,76693.00
2022-11-04T02:58:26.253Z,76693.00
2022-11-04T03:00:53.584Z,76705.34
2022-11-04T03:03:22.654Z,76699.16
2022-11-04T03:05:50.673Z,76711.50
2022-11-04T03:08:33.543Z,76719.72
2022-11-04T03:11:02.833Z,76719.72
2022-11-04T03:13:37.839Z,76727.94
2022-11-04T03:16:09.291Z,76727.94
2022-11-04T03:18:43.726Z,76738.22
2022-11-04T03:21:11.378Z,76748.50
2022-11-04T03:23:38.829Z,76744.41
2022-11-04T03:26:11.260Z,76744.41
2022-11-04T03:28:43.717Z,76764.97
2022-11-04T03:31:13.056Z,76769.06
2022-11-04T03:33:46.648Z,76764.97
2022-11-04T03:36:17.366Z,76723.84
2022-11-04T03:38:45.979Z,76738.22
2022-11-04T03:41:15.394Z,76756.72
2022-11-04T03:43:43.167Z,76723.84
2022-11-04T03:46:10.734Z,76699.16
2022-11-04T03:48:38.076Z,76699.16
2022-11-04T03:51:05.420Z,76719.72
2022-11-04T03:53:32.781Z,76738.22
2022-11-04T03:56:34.887Z,76748.50
2022-11-04T03:59:06.263Z,76742.34
2022-11-04T04:01:48.743Z,76732.06
2022-11-04T04:04:15.870Z,76736.16
2022-11-04T04:06:43.376Z,76715.63
2022-11-04T04:09:10.607Z,76695.06
2022-11-04T04:11:50.148Z,76715.63
2022-11-04T04:14:41.463Z,76723.84
2022-11-04T04:17:32.065Z,76682.72
2022-11-04T04:20:20.012Z,76682.72
2022-11-04T04:22:49.103Z,76715.63
2022-11-04T04:25:35.252Z,76703.28
2022-11-04T04:28:02.430Z,76703.28
2022-11-04T04:30:29.631Z,76727.94
2022-11-04T04:33:01.411Z,76725.91
2022-11-04T04:35:42.088Z,76707.41
2022-11-04T04:38:43.825Z,76715.63
2022-11-04T04:41:30.149Z,76748.50
2022-11-04T04:44:15.890Z,76750.56
2022-11-04T04:46:43.483Z,76727.94
2022-11-04T04:49:10.567Z,76719.72
2022-11-04T04:51:42.476Z,76760.84
2022-11-04T04:54:10.272Z,76760.84
2022-11-04T04:56:38.708Z,76736.16
2022-11-04T04:59:06.080Z,76736.16
2022-11-04T05:01:34.030Z,76773.19
2022-11-04T05:04:01.177Z,76777.28
2022-11-04T05:06:28.333Z,76779.34
2022-11-04T05:08:55.484Z,76791.69
2022-11-04T05:11:26.137Z,76801.97
2022-11-04T05:13:54.719Z,76797.84
2022-11-04T05:16:21.828Z,76789.63
2022-11-04T05:18:49.073Z,76781.41
2022-11-04T05:21:16.565Z,76773.19
2022-11-04T05:23:43.852Z,76767.00
2022-11-04T05:26:10.891Z,76769.06
2022-11-04T05:28:38.783Z,76773.19
2022-11-04T05:31:06.303Z,76764.97
2022-11-04T05:33:33.466Z,76734.13
2022-11-04T05:36:07.760Z,76742.34
2022-11-04T05:38:34.847Z,76740.28
2022-11-04T05:41:02.047Z,76738.22
2022-11-04T05:43:29.382Z,76764.97
2022-11-04T05:45:58.251Z,76771.13
2022-11-04T05:48:25.341Z,76754.69
2022-11-04T05:50:52.603Z,76744.41
2022-11-04T05:53:19.677Z,76754.69
2022-11-04T05:55:47.034Z,76748.50
2022-11-04T05:58:14.079Z,76756.72
2022-11-04T06:00:43.109Z,76748.50
2022-11-04T06:03:13.592Z,76764.97
2022-11-04T06:05:43.388Z,76760.84
2022-11-04T06:08:10.736Z,76723.84
2022-11-04T06:10:38.218Z,76682.72
2022-11-04T06:13:05.346Z,76711.50
2022-11-04T06:15:37.753Z,76705.34
2022-11-04T06:18:04.991Z,76711.50
2022-11-04T06:20:32.043Z,76721.78
2022-11-04T06:23:00.524Z,76713.56
2022-11-04T06:25:27.720Z,76682.72
2022-11-04T06:27:54.744Z,76602.56
2022-11-04T06:30:21.768Z,76452.50
2022-11-04T06:32:49.772Z,76399.03
2022-11-04T06:35:16.983Z,76452.50
2022-11-04T06:37:44.056Z,76524.44
2022-11-04T06:40:11.244Z,76555.28
2022-11-04T06:42:39.428Z,76563.50
2022-11-04T06:45:06.678Z,76538.81
2022-11-04T06:47:34.588Z,76518.28
2022-11-04T06:50:02.018Z,76501.81
2022-11-04T06:52:29.659Z,76378.50
2022-11-04T06:54:56.695Z,76156.50
2022-11-04T06:57:23.794Z,75918.06
2022-11-04T06:59:50.840Z,76061.94
2022-11-04T07:02:19.156Z,76012.63
2022-11-04T07:04:46.501Z,76103.06
2022-11-04T07:07:13.555Z,76255.16
2022-11-04T07:09:40.646Z,76246.94
2022-11-04T07:12:07.839Z,76144.16
2022-11-04T07:14:35.003Z,76181.16
2022-11-04T07:17:04.475Z,76288.03
2022-11-04T07:19:31.552Z,76205.81
2022-11-04T07:21:58.558Z,76205.81
2022-11-04T07:24:25.699Z,76185.28
2022-11-04T07:26:54.302Z,76275.72
2022-11-04T07:29:21.688Z,76290.09
2022-11-04T07:31:48.725Z,76214.06
2022-11-04T07:34:16.981Z,76193.50
2022-11-04T07:36:44.673Z,76238.72
2022-11-04T07:39:11.764Z,76251.03
2022-11-04T07:41:38.869Z,76230.50
2022-11-04T07:44:06.303Z,76302.44
2022-11-04T07:46:33.535Z,76339.44
2022-11-04T07:49:00.571Z,76353.81
2022-11-04T07:51:27.921Z,76452.50
2022-11-04T07:53:55.601Z,76477.16
2022-11-04T07:56:24.080Z,76489.50
2022-11-04T07:58:51.200Z,76468.94
2022-11-04T08:01:19.414Z,76510.03
2022-11-04T08:03:46.556Z,76505.94
2022-11-04T08:06:14.098Z,76526.50
2022-11-04T08:08:43.328Z,76538.81
2022-11-04T08:11:16.797Z,76524.44
2022-11-04T08:13:44.828Z,76493.59
2022-11-04T08:16:15.719Z,76547.06
2022-11-04T08:18:43.897Z,76575.81
2022-11-04T08:21:11.244Z,76557.31
2022-11-04T08:23:38.723Z,76561.44
2022-11-04T08:26:09.860Z,76577.88
2022-11-04T08:28:38.921Z,76623.09
2022-11-04T08:31:07.062Z,76633.38
2022-11-04T08:33:36.876Z,76579.94
2022-11-04T08:36:05.323Z,76473.03
2022-11-04T08:38:34.338Z,76405.22
2022-11-04T08:41:01.722Z,76306.53
2022-11-04T08:43:28.968Z,76074.28
2022-11-04T08:45:56.073Z,75872.84
2022-11-04T08:48:23.634Z,75876.97
2022-11-04T08:50:54.782Z,76027.00
2022-11-04T08:53:21.906Z,76103.06
2022-11-04T08:55:49.237Z,76234.59
2022-11-04T08:58:17.223Z,76292.16
2022-11-04T09:00:45.639Z,76333.28
2022-11-04T09:03:14.612Z,76349.72
2022-11-04T09:05:46.026Z,76288.03
2022-11-04T09:08:15.436Z,76220.22
2022-11-04T09:10:43.723Z,76296.28
2022-11-04T09:13:11.827Z,76277.78
2022-11-04T09:15:39.238Z,76205.81
2022-11-04T09:18:06.295Z,76187.31
2022-11-04T09:20:34.608Z,76191.44
2022-11-04T09:23:02.219Z,76218.16
2022-11-04T09:25:29.365Z,76292.16
2022-11-04T09:27:56.382Z,76288.03
2022-11-04T09:30:23.425Z,76333.28
2022-11-04T09:32:52.852Z,76353.81
2022-11-04T09:35:20.472Z,76312.72
2022-11-04T09:37:47.873Z,76320.94
2022-11-04T09:40:15.412Z,76325.03
2022-11-04T09:42:46.269Z,76372.31
2022-11-04T09:45:22.508Z,76360.00
2022-11-04T09:47:50.961Z,76368.22
2022-11-04T09:50:22.929Z,76349.72
2022-11-04T09:52:53.130Z,76384.66
2022-11-04T09:55:30.069Z,76357.94
2022-11-04T09:58:00.448Z,76316.81
2022-11-04T10:00:28.091Z,76325.03
2022-11-04T10:02:57.756Z,76310.66
2022-11-04T10:05:24.822Z,76230.50
2022-11-04T10:08:14.978Z,76127.72
2022-11-04T10:10:53.026Z,76082.50
2022-11-04T10:13:22.939Z,76164.72
2022-11-04T10:15:59.632Z,76131.84
2022-11-04T10:18:41.911Z,76111.28
2022-11-04T10:21:27.723Z,76033.19
2022-11-04T10:24:00.672Z,76053.72
2022-11-04T10:26:28.000Z,76049.63
2022-11-04T10:28:56.787Z,76039.34
2022-11-04T10:31:23.994Z,75979.75
2022-11-04T10:33:55.262Z,76061.94
2022-11-04T10:36:22.334Z,76041.41
2022-11-04T10:38:58.901Z,75946.84
2022-11-04T10:41:32.193Z,75983.84
2022-11-04T10:44:03.828Z,76004.41
2022-11-04T10:46:38.890Z,75987.97
2022-11-04T10:49:07.874Z,75987.97
2022-11-04T10:51:35.234Z,75963.28
2022-11-04T10:54:03.312Z,75963.28
2022-11-04T10:56:36.140Z,75835.88
2022-11-04T10:59:19.999Z,75792.72
2022-11-04T11:01:57.966Z,75930.41
2022-11-04T11:04:26.783Z,75965.34
2022-11-04T11:06:54.454Z,75975.63
2022-11-04T11:09:25.865Z,75953.00
2022-11-04T11:11:52.949Z,76006.47
2022-11-04T11:14:30.326Z,76076.34
2022-11-04T11:16:57.752Z,76131.84
2022-11-04T11:19:25.213Z,76170.88
2022-11-04T11:21:53.196Z,76107.16
2022-11-04T11:24:23.727Z,76045.50
2022-11-04T11:26:52.096Z,76008.50
2022-11-04T11:29:23.795Z,76020.84
2022-11-04T11:31:51.998Z,76012.63
2022-11-04T11:34:26.673Z,75977.69
2022-11-04T11:36:56.969Z,75922.19
2022-11-04T11:39:28.130Z,75971.50
2022-11-04T11:41:55.503Z,75971.50
2022-11-04T11:44:44.624Z,75897.53
2022-11-04T11:47:30.775Z,75833.81
2022-11-04T11:50:26.309Z,75897.53
2022-11-04T11:52:54.912Z,75967.41
2022-11-04T11:55:26.299Z,75946.84
2022-11-04T12:01:14.100Z,76074.28
2022-11-04T12:09:40.214Z,75839.97
2022-11-04T12:12:31.805Z,75782.44
2022-11-04T12:14:59.871Z,75657.06
2022-11-04T12:17:44.648Z,75692.00
2022-11-04T12:20:18.924Z,75860.53
2022-11-04T12:22:54.912Z,75913.97
2022-11-04T12:25:25.288Z,75885.19
2022-11-04T12:27:55.231Z,75876.97
2022-11-04T12:30:32.255Z,75965.34
2022-11-04T12:33:01.300Z,76016.72
2022-11-04T12:35:37.263Z,75971.50
2022-11-04T12:38:04.272Z,76029.06
2022-11-04T12:40:33.339Z,76053.72
2022-11-04T12:43:09.525Z,76086.63
2022-11-04T12:45:46.324Z,76020.84
2022-11-04T12:48:36.417Z,76022.91
2022-11-04T12:51:22.450Z,76119.50
2022-11-04T12:54:04.977Z,76115.38
2022-11-04T12:56:38.760Z,76115.38
2022-11-04T12:59:09.103Z,76088.66
2022-11-04T13:01:45.883Z,76115.38
2022-11-04T13:04:33.556Z,76138.00
2022-11-04T13:07:01.126Z,76144.16
2022-11-04T13:09:37.362Z,76150.34
2022-11-04T13:12:10.225Z,76193.50
2022-11-04T13:14:40.077Z,76212.00
2022-11-04T13:17:08.486Z,76212.00
2022-11-04T13:19:35.643Z,76214.06
2022-11-04T13:22:06.705Z,76251.03
2022-11-04T13:24:35.911Z,76253.09
2022-11-04T13:27:38.512Z,76261.31
2022-11-04T13:30:08.120Z,76294.22
2022-11-04T13:32:38.461Z,76304.50
2022-11-04T13:35:38.342Z,76290.09
2022-11-04T13:38:08.802Z,76298.31
2022-11-04T13:40:43.121Z,76308.59
2022-11-04T13:43:39.310Z,76296.28
2022-11-04T13:46:16.336Z,76304.50
2022-11-04T13:48:56.668Z,76329.16
2022-11-04T13:51:25.104Z,76357.94
2022-11-04T13:53:52.200Z,76345.59
2022-11-04T13:56:48.733Z,76345.59
2022-11-04T13:59:44.317Z,76362.03
2022-11-04T14:02:11.975Z,76366.16
2022-11-04T14:04:39.632Z,76370.25
2022-11-04T14:07:10.287Z,76374.38
2022-11-04T14:09:43.530Z,76386.72
2022-11-04T14:12:10.573Z,76380.53
2022-11-04T14:14:38.538Z,76349.72
2022-11-04T14:17:25.531Z,76341.50
2022-11-04T14:19:56.042Z,76382.59
2022-11-04T14:22:42.107Z,76370.25
2022-11-04T14:25:27.749Z,76374.38
2022-11-04T14:27:56.164Z,76390.81
2022-11-04T14:30:28.225Z,76415.50
2022-11-04T14:33:01.057Z,76427.81
2022-11-04T14:35:28.575Z,76407.28
2022-11-04T14:37:56.157Z,76397.00
2022-11-04T14:40:27.510Z,76421.66
2022-11-04T14:42:57.690Z,76423.72
2022-11-04T14:45:27.159Z,76431.94
2022-11-04T14:47:57.095Z,76431.94
2022-11-04T14:50:25.293Z,76436.03
2022-11-04T14:52:57.109Z,76440.16
2022-11-04T14:55:26.626Z,76436.03
2022-11-04T14:57:54.475Z,76436.03
2022-11-04T15:00:24.790Z,76454.53
2022-11-04T15:03:01.090Z,76454.53
2022-11-04T15:05:29.461Z,76448.38
2022-11-04T15:07:57.842Z,76448.38
2022-11-04T15:10:26.181Z,76460.72
2022-11-04T15:12:55.282Z,76452.50
2022-11-04T15:15:38.881Z,76450.44
2022-11-04T15:18:07.474Z,76446.31
2022-11-04T15:21:01.370Z,76448.38
2022-11-04T15:23:29.410Z,76448.38
2022-11-04T15:25:56.851Z,76458.66
2022-11-04T15:28:29.067Z,76464.81
2022-11-04T15:31:11.458Z,76466.88
2022-11-04T15:33:42.737Z,76477.16
2022-11-04T15:36:13.003Z,76483.31
2022-11-04T15:38:40.652Z,76479.22
2022-11-04T15:41:26.510Z,76493.59
2022-11-04T15:43:53.612Z,76491.53
2022-11-04T15:46:20.663Z,76473.03
2022-11-04T15:49:02.332Z,76464.81
2022-11-04T15:51:29.986Z,76483.31
2022-11-04T15:53:58.211Z,76473.03
2022-11-04T15:56:29.539Z,76460.72
2022-11-04T15:58:56.707Z,76464.81
2022-11-04T16:01:24.099Z,76471.00
2022-11-04T16:03:55.183Z,76462.78
2022-11-04T16:06:38.261Z,76464.81
2022-11-04T16:09:05.479Z,76456.59
2022-11-04T16:11:33.349Z,76460.72
2022-11-04T16:14:20.409Z,76466.88
2022-11-04T16:16:49.297Z,76489.50
2022-11-04T16:19:21.897Z,76477.16
2022-11-04T16:21:58.304Z,76479.22
2022-11-04T16:24:26.482Z,76477.16
2022-11-04T16:26:56.890Z,76468.94
2022-11-04T16:29:28.004Z,76460.72
2022-11-04T16:32:27.862Z,76473.03
2022-11-04T16:35:05.963Z,76471.00
2022-11-04T16:37:33.119Z,76456.59
2022-11-04T16:40:00.464Z,76460.72
2022-11-04T16:42:27.562Z,76468.94
2022-11-04T16:45:10.548Z,76489.50
2022-11-04T16:47:39.404Z,76501.81
2022-11-04T16:50:10.039Z,76493.59
2022-11-04T16:52:43.091Z,76495.66
2022-11-04T16:55:11.839Z,76497.72
2022-11-04T16:57:39.136Z,76499.78
2022-11-04T17:00:07.945Z,76508.00
2022-11-04T17:02:41.162Z,76510.03
2022-11-04T17:05:09.082Z,76508.00
2022-11-04T17:07:52.466Z,76510.03
2022-11-04T17:10:23.147Z,76514.16
2022-11-04T17:12:50.195Z,76522.38
2022-11-04T17:15:18.794Z,76518.28
2022-11-04T17:17:46.348Z,76526.50
2022-11-04T17:20:14.178Z,76520.31
2022-11-04T17:22:41.725Z,76514.16
2022-11-04T17:25:16.527Z,76526.50
2022-11-04T17:27:44.594Z,76522.38
2022-11-04T17:30:13.530Z,76520.31
2022-11-04T17:32:41.413Z,76518.28
2022-11-04T17:35:08.644Z,76528.53
2022-11-04T17:37:35.751Z,76522.38
2022-11-04T17:40:03.392Z,76514.16
2022-11-04T17:42:51.925Z,76518.28
2022-11-04T17:45:19.066Z,76518.28
2022-11-04T17:47:46.977Z,76530.59
2022-11-04T17:50:14.017Z,76526.50
2022-11-04T17:52:45.671Z,76526.50
2022-11-04T17:55:16.893Z,76530.59
2022-11-04T17:57:45.908Z,76530.59
2022-11-04T18:00:14.940Z,76522.38
2022-11-04T18:02:42.880Z,76530.59
2022-11-04T18:05:11.153Z,76522.38
2022-11-04T18:07:38.290Z,76530.59
2022-11-04T18:10:06.511Z,76534.72
2022-11-04T18:12:37.454Z,76538.81
2022-11-04T18:15:08.813Z,76530.59
2022-11-04T18:17:37.086Z,76530.59
2022-11-04T18:20:08.165Z,76538.81
2022-11-04T18:22:38.728Z,76538.81
2022-11-04T18:25:06.138Z,76538.81
2022-11-04T18:27:33.479Z,76542.94
2022-11-04T18:30:00.516Z,76547.06
2022-11-04T18:32:27.643Z,76553.22
2022-11-04T18:34:55.840Z,76551.16
2022-11-04T18:37:23.927Z,76575.81
2022-11-04T18:39:51.461Z,76567.59
2022-11-04T18:42:19.640Z,76565.56
2022-11-04T18:44:48.598Z,76571.72
2022-11-04T18:47:16.253Z,76575.81
2022-11-04T18:49:43.385Z,76575.81
2022-11-04T18:52:11.433Z,76579.94
2022-11-04T18:54:38.619Z,76571.72
2022-11-04T18:57:06.105Z,76592.28
2022-11-04T18:59:33.228Z,76592.28
2022-11-04T19:02:01.811Z,76592.28
2022-11-04T19:04:29.220Z,76588.16
2022-11-04T19:06:56.688Z,76598.44
2022-11-04T19:12:30.403Z,76590.22
2022-11-04T19:14:57.521Z,76592.28
2022-11-04T19:17:25.253Z,76586.09
2022-11-04T19:19:52.314Z,76592.28
2022-11-04T19:22:20.053Z,76588.16
2022-11-04T19:24:47.290Z,76596.38
2022-11-04T19:27:17.886Z,76604.59
2022-11-04T19:29:46.422Z,76592.28
2022-11-04T19:32:14.440Z,76600.50
2022-11-04T19:34:42.262Z,76606.66
2022-11-04T19:37:10.618Z,76610.78
2022-11-04T19:39:38.223Z,76608.72
2022-11-04T19:42:24.510Z,76604.59
2022-11-04T19:44:51.542Z,76604.59
2022-11-04T19:47:18.987Z,76596.38
2022-11-04T19:49:47.497Z,76586.09
2022-11-04T19:52:14.987Z,76584.06
2022-11-04T19:54:42.352Z,76588.16
2022-11-04T19:57:10.956Z,76594.31
2022-11-04T19:59:38.680Z,76608.72
2022-11-04T20:02:06.029Z,76596.38
2022-11-04T20:04:33.187Z,76598.44
2022-11-04T20:07:00.692Z,76596.38
2022-11-04T20:09:27.776Z,76610.78
2022-11-04T20:12:13.701Z,76600.50
2022-11-04T20:14:42.249Z,76592.28
2022-11-04T20:17:11.855Z,76588.16
2022-11-04T20:19:39.404Z,76584.06
2022-11-04T20:22:06.622Z,76590.22
2022-11-04T20:24:35.079Z,76592.28
2022-11-04T20:27:02.244Z,76590.22
2022-11-04T20:29:29.435Z,76584.06
2022-11-04T20:31:57.047Z,76584.06
2022-11-04T20:34:26.587Z,76596.38
2022-11-04T20:36:57.304Z,76608.72
2022-11-04T20:39:24.379Z,76612.84
2022-11-04T20:41:51.517Z,76604.59
2022-11-04T20:44:18.531Z,76614.88
2022-11-04T20:46:45.641Z,76614.88
2022-11-04T20:49:13.371Z,76608.72
2022-11-04T20:51:54.776Z,76625.16
2022-11-04T20:54:24.600Z,76604.59
2022-11-04T20:56:56.852Z,76600.50
2022-11-04T20:59:28.899Z,76608.72
2022-11-04T21:01:56.624Z,76606.66
2022-11-04T21:04:23.800Z,76598.44
2022-11-04T21:06:51.396Z,76584.06
2022-11-04T21:09:19.773Z,76614.88
2022-11-04T21:11:52.854Z,76596.38
2022-11-04T21:14:23.691Z,76592.28
2022-11-04T21:16:52.704Z,76592.28
2022-11-04T21:19:21.959Z,76600.50
2022-11-04T21:21:49.549Z,76600.50
2022-11-04T21:24:16.907Z,76571.72
2022-11-04T21:26:45.685Z,76565.56
2022-11-04T21:29:14.058Z,76588.16
2022-11-04T21:31:41.434Z,76592.28
2022-11-04T21:34:09.129Z,76575.81
2022-11-04T21:36:36.701Z,76584.06
2022-11-04T21:39:03.824Z,76584.06
2022-11-04T21:41:33.984Z,76592.28
2022-11-04T21:44:01.722Z,76584.06
2022-11-04T21:46:29.236Z,76565.56
2022-11-04T21:48:56.337Z,76567.59
2022-11-04T21:51:24.276Z,76596.38
2022-11-04T21:53:51.650Z,76604.59
2022-11-04T21:56:20.305Z,76582.00
2022-11-04T21:58:47.601Z,76582.00
2022-11-04T22:01:16.167Z,76596.38
2022-11-04T22:03:43.436Z,76604.59
2022-11-04T22:06:12.844Z,76577.88
2022-11-04T22:08:43.296Z,76573.78
2022-11-04T22:11:10.303Z,76586.09
2022-11-04T22:13:37.381Z,76596.38
2022-11-04T22:16:10.651Z,76590.22
2022-11-04T22:18:38.235Z,76569.66
2022-11-04T22:21:06.095Z,76577.88
2022-11-04T22:23:33.936Z,76586.09
2022-11-04T22:26:01.613Z,76612.84
2022-11-04T22:28:29.032Z,76625.16
2022-11-04T22:30:56.101Z,76629.28
2022-11-04T22:33:28.828Z,76633.38
2022-11-04T22:35:58.892Z,76621.06
2022-11-04T22:38:25.917Z,76629.28
2022-11-04T22:40:53.753Z,76631.34
2022-11-04T22:43:20.782Z,76608.72
2022-11-04T22:45:47.806Z,76612.84
2022-11-04T22:48:15.009Z,76612.84
2022-11-04T22:50:42.071Z,76606.66
2022-11-04T22:53:09.310Z,76588.16
2022-11-04T22:55:37.443Z,76584.06
2022-11-04T22:58:04.641Z,76575.81
2022-11-04T23:00:31.987Z,76553.22
2022-11-04T23:02:59.347Z,76579.94
2022-11-04T23:05:28.244Z,76579.94
2022-11-04T23:07:56.810Z,76559.38
2022-11-04T23:10:42.539Z,76567.59
2022-11-04T23:13:28.603Z,76579.94
2022-11-04T23:16:14.321Z,76571.72
2022-11-04T23:18:44.378Z,76563.50
2022-11-04T23:21:30.764Z,76579.94
2022-11-04T23:24:16.447Z,76575.81
2022-11-04T23:26:45.394Z,76588.16
2022-11-04T23:29:31.164Z,76606.66
2022-11-04T23:31:58.211Z,76604.59
2022-11-04T23:34:44.019Z,76592.28
2022-11-04T23:37:14.216Z,76590.22
2022-11-04T23:39:45.911Z,76596.38
2022-11-04T23:42:17.321Z,76608.72
2022-11-04T23:45:07.163Z,76598.44
2022-11-04T23:47:54.410Z,76586.09
2022-11-04T23:50:40.383Z,76623.09
2022-11-04T23:53:26.071Z,76604.59
2022-11-04T23:56:11.937Z,76600.50
2022-11-04T23:58:57.636Z,76598.44
